createdAt,value
2023-07-21T00:02:23.623Z,23.10
2023-07-21T00:04:53.670Z,23.10
2023-07-21T00:07:23.538Z,23.10
2023-07-21T00:09:52.604Z,23.20
2023-07-21T00:12:22.487Z,23.10
2023-07-21T00:14:52.156Z,23.00
2023-07-21T00:17:25.000Z,23.00
2023-07-21T00:20:02.200Z,23.00
2023-07-21T00:22:34.453Z,23.10
2023-07-21T00:25:13.628Z,23.20
2023-07-21T00:27:45.681Z,23.10
2023-07-21T00:30:18.590Z,23.20
2023-07-21T00:32:48.447Z,23.20
2023-07-21T00:35:18.007Z,23.30
2023-07-21T00:37:48.188Z,23.30
2023-07-21T00:40:26.497Z,23.40
2023-07-21T00:43:06.232Z,23.40
2023-07-21T00:45:55.949Z,23.40
2023-07-21T00:48:25.691Z,23.40
2023-07-21T00:50:56.885Z,23.50
2023-07-21T00:53:27.921Z,23.70
2023-07-21T00:55:58.158Z,23.80
2023-07-21T00:58:29.396Z,23.90
2023-07-21T01:00:59.207Z,24.30
2023-07-21T01:03:28.510Z,24.80
2023-07-21T01:05:58.807Z,25.10
2023-07-21T01:08:28.913Z,25.50
2023-07-21T01:10:59.513Z,25.50
2023-07-21T01:13:29.828Z,25.60
2023-07-21T01:16:00.248Z,25.60
2023-07-21T01:18:30.417Z,25.90
2023-07-21T01:21:10.221Z,25.90
2023-07-21T01:23:55.639Z,26.10
2023-07-21T01:26:28.587Z,26.40
2023-07-21T01:28:58.982Z,26.40
2023-07-21T01:31:29.025Z,26.50
2023-07-21T01:34:03.545Z,26.60
2023-07-21T01:36:34.311Z,26.80
2023-07-21T01:39:04.595Z,26.90
2023-07-21T01:41:35.867Z,26.90
2023-07-21T01:44:06.583Z,27.00
2023-07-21T01:46:36.380Z,27.40
2023-07-21T01:49:06.718Z,27.70
2023-07-21T01:51:39.922Z,27.80
2023-07-21T01:54:20.276Z,27.90
2023-07-21T01:57:03.506Z,27.80
2023-07-21T01:59:33.522Z,27.90
2023-07-21T02:02:04.195Z,27.50
2023-07-21T02:04:34.384Z,27.60
2023-07-21T02:07:05.009Z,27.50
2023-07-21T02:09:35.089Z,27.40
2023-07-21T02:12:05.934Z,27.00
2023-07-21T02:14:35.702Z,26.80
2023-07-21T02:17:05.529Z,26.90
2023-07-21T02:19:35.331Z,27.10
2023-07-21T02:22:08.042Z,27.30
2023-07-21T02:24:38.247Z,27.70
2023-07-21T02:27:10.025Z,28.00
2023-07-21T02:29:39.941Z,28.30
2023-07-21T02:32:13.657Z,28.40
2023-07-21T02:34:44.078Z,28.30
2023-07-21T02:37:13.868Z,27.80
2023-07-21T02:39:43.652Z,27.60
2023-07-21T02:42:13.376Z,27.30
2023-07-21T02:44:43.732Z,27.00
2023-07-21T02:47:17.280Z,26.80
2023-07-21T02:49:47.942Z,26.80
2023-07-21T02:52:17.699Z,27.10
2023-07-21T02:54:47.378Z,27.60
2023-07-21T02:57:17.478Z,27.80
2023-07-21T02:59:50.788Z,28.00
2023-07-21T03:02:21.115Z,27.70
2023-07-21T03:04:50.847Z,27.90
2023-07-21T03:07:20.586Z,28.10
2023-07-21T03:09:50.965Z,28.20
2023-07-21T03:12:20.689Z,28.30
2023-07-21T03:14:51.892Z,28.70
2023-07-21T03:17:21.561Z,28.50
2023-07-21T03:19:51.400Z,28.70
2023-07-21T03:22:21.276Z,28.90
2023-07-21T03:24:51.088Z,28.80
2023-07-21T03:27:21.118Z,28.50
2023-07-21T03:29:54.805Z,28.50
2023-07-21T03:32:24.525Z,28.80
2023-07-21T03:34:57.139Z,28.50
2023-07-21T03:37:29.967Z,28.10
2023-07-21T03:39:59.981Z,27.60
2023-07-21T03:42:30.433Z,27.70
2023-07-21T03:45:00.481Z,27.90
2023-07-21T03:47:30.585Z,28.20
2023-07-21T03:50:02.553Z,28.00
2023-07-21T03:52:32.522Z,27.90
2023-07-21T03:55:02.417Z,28.10
2023-07-21T03:57:32.234Z,28.20
2023-07-21T04:00:02.015Z,28.20
2023-07-21T04:02:31.859Z,28.30
2023-07-21T04:05:01.553Z,28.30
2023-07-21T04:07:31.300Z,28.10
2023-07-21T04:10:04.396Z,28.40
2023-07-21T04:12:34.304Z,28.50
2023-07-21T04:15:04.199Z,28.50
2023-07-21T04:17:35.279Z,28.60
2023-07-21T04:20:06.886Z,28.70
2023-07-21T04:22:36.771Z,28.60
2023-07-21T04:25:07.161Z,28.60
2023-07-21T04:27:38.360Z,28.60
2023-07-21T04:30:10.812Z,28.60
2023-07-21T04:32:41.581Z,28.60
2023-07-21T04:35:11.942Z,28.70
2023-07-21T04:37:42.601Z,28.80
2023-07-21T04:40:13.820Z,28.90
2023-07-21T04:42:43.699Z,28.60
2023-07-21T04:45:16.508Z,28.50
2023-07-21T04:47:46.432Z,28.70
2023-07-21T04:50:16.360Z,28.50
2023-07-21T04:52:46.165Z,28.60
2023-07-21T04:55:17.801Z,28.70
2023-07-21T04:57:47.516Z,28.80
2023-07-21T05:00:18.154Z,28.90
2023-07-21T05:02:48.170Z,28.90
2023-07-21T05:05:21.410Z,29.00
2023-07-21T05:07:54.250Z,29.10
2023-07-21T05:10:27.102Z,29.20
2023-07-21T05:12:57.968Z,29.30
2023-07-21T05:15:30.103Z,29.50
2023-07-21T05:17:59.976Z,29.70
2023-07-21T05:20:31.062Z,29.90
2023-07-21T05:23:01.939Z,30.10
2023-07-21T05:25:31.845Z,30.20
2023-07-21T05:28:01.914Z,30.30
2023-07-21T05:30:31.804Z,30.40
2023-07-21T05:33:09.169Z,30.40
2023-07-21T05:35:39.134Z,30.30
2023-07-21T05:38:09.098Z,30.20
2023-07-21T05:40:44.670Z,30.00
2023-07-21T05:43:14.952Z,29.90
2023-07-21T05:45:47.437Z,29.80
2023-07-21T05:48:17.435Z,29.70
2023-07-21T05:50:49.983Z,29.70
2023-07-21T05:53:20.234Z,29.60
2023-07-21T05:55:50.720Z,29.70
2023-07-21T05:58:25.927Z,29.80
2023-07-21T06:01:04.580Z,29.70
2023-07-21T06:03:35.397Z,29.70
2023-07-21T06:06:05.281Z,30.00
2023-07-21T06:08:37.142Z,30.10
2023-07-21T06:11:10.594Z,30.20
2023-07-21T06:13:40.590Z,30.30
2023-07-21T06:16:11.107Z,30.10
2023-07-21T06:18:40.893Z,30.20
2023-07-21T06:21:10.847Z,30.10
2023-07-21T06:23:55.137Z,30.00
2023-07-21T06:26:31.002Z,30.00
2023-07-21T06:29:00.936Z,30.20
2023-07-21T06:31:34.716Z,30.30
2023-07-21T06:34:08.506Z,30.30
2023-07-21T06:36:39.325Z,30.30
2023-07-21T06:39:09.362Z,30.40
2023-07-21T06:41:48.687Z,30.50
2023-07-21T06:44:18.994Z,30.60
2023-07-21T06:46:50.445Z,30.70
2023-07-21T06:49:20.632Z,30.80
2023-07-21T06:51:50.347Z,30.80
2023-07-21T06:54:20.234Z,30.80
2023-07-21T06:56:55.530Z,30.70
2023-07-21T06:59:26.059Z,30.80
2023-07-21T07:02:00.270Z,30.70
2023-07-21T07:04:33.305Z,31.00
2023-07-21T07:07:07.659Z,31.00
2023-07-21T07:09:37.647Z,31.00
2023-07-21T07:12:15.014Z,31.00
2023-07-21T07:14:47.294Z,31.00
2023-07-21T07:17:17.632Z,30.80
2023-07-21T07:19:50.378Z,30.70
2023-07-21T07:22:22.753Z,30.60
2023-07-21T07:24:55.729Z,30.40
2023-07-21T07:27:29.064Z,30.40
2023-07-21T07:29:59.877Z,30.10
2023-07-21T07:32:29.783Z,29.90
2023-07-21T07:34:59.661Z,29.80
2023-07-21T07:37:31.228Z,29.60
2023-07-21T07:40:01.232Z,29.50
2023-07-21T07:42:31.870Z,29.30
2023-07-21T07:45:02.884Z,29.20
2023-07-21T07:47:32.747Z,29.20
2023-07-21T07:50:02.612Z,29.00
2023-07-21T07:52:33.076Z,28.90
2023-07-21T07:55:02.965Z,28.80
2023-07-21T07:57:32.811Z,28.80
2023-07-21T08:00:02.580Z,28.80
2023-07-21T08:02:32.463Z,28.80
2023-07-21T08:05:02.367Z,28.70
2023-07-21T08:07:32.923Z,28.60
2023-07-21T08:10:04.946Z,28.60
2023-07-21T08:12:34.864Z,28.40
2023-07-21T08:15:04.792Z,28.30
2023-07-21T08:17:35.793Z,28.40
2023-07-21T08:20:06.142Z,28.40
2023-07-21T08:22:36.000Z,28.10
2023-07-21T08:25:09.301Z,28.00
2023-07-21T08:27:39.342Z,27.90
2023-07-21T08:30:12.794Z,27.90
2023-07-21T08:32:48.671Z,27.80
2023-07-21T08:35:18.533Z,27.70
2023-07-21T08:37:48.767Z,27.70
2023-07-21T08:40:19.158Z,27.70
2023-07-21T08:42:56.099Z,27.60
2023-07-21T08:45:32.603Z,27.50
2023-07-21T08:48:07.127Z,27.60
2023-07-21T08:50:45.356Z,27.70
2023-07-21T08:53:16.464Z,27.60
2023-07-21T08:55:46.344Z,27.50
2023-07-21T08:58:17.272Z,27.30
2023-07-21T09:00:47.181Z,27.40
2023-07-21T09:03:25.229Z,27.40
2023-07-21T09:05:57.645Z,27.30
2023-07-21T09:08:33.449Z,27.20
2023-07-21T09:11:04.724Z,27.20
2023-07-21T09:13:36.226Z,26.90
2023-07-21T09:16:10.256Z,27.00
2023-07-21T09:18:43.439Z,27.10
2023-07-21T09:21:24.348Z,27.30
2023-07-21T09:23:54.813Z,27.30
2023-07-21T09:26:27.032Z,27.30
2023-07-21T09:28:57.320Z,27.30
2023-07-21T09:31:36.590Z,27.20
2023-07-21T09:34:12.373Z,27.20
2023-07-21T09:36:50.701Z,27.20
2023-07-21T09:39:21.695Z,27.20
2023-07-21T09:41:55.311Z,27.30
2023-07-21T09:44:26.037Z,27.40
2023-07-21T09:46:57.374Z,27.40
2023-07-21T09:49:27.487Z,27.30
2023-07-21T09:52:01.272Z,27.40
2023-07-21T09:54:37.503Z,27.40
2023-07-21T09:57:07.794Z,27.40
2023-07-21T09:59:40.964Z,27.50
2023-07-21T10:02:11.747Z,27.50
2023-07-21T10:04:41.910Z,27.50
2023-07-21T10:07:12.419Z,27.60
2023-07-21T10:09:43.516Z,27.50
2023-07-21T10:15:33.987Z,27.60
2023-07-21T10:18:14.773Z,27.60
2023-07-21T10:20:49.462Z,27.60
2023-07-21T10:23:27.308Z,27.60
2023-07-21T10:26:08.084Z,27.60
2023-07-21T10:28:41.165Z,27.30
2023-07-21T10:31:29.225Z,27.00
2023-07-21T10:34:11.566Z,27.00
2023-07-21T10:36:44.632Z,26.80
2023-07-21T10:39:19.044Z,26.90
2023-07-21T10:41:50.574Z,26.80
2023-07-21T10:44:21.546Z,26.70
2023-07-21T10:46:58.510Z,26.60
2023-07-21T10:49:28.633Z,26.70
2023-07-21T10:51:58.791Z,26.70
2023-07-21T10:54:28.625Z,26.60
2023-07-21T10:56:58.813Z,26.80
2023-07-21T10:59:28.750Z,26.90
2023-07-21T11:01:59.302Z,27.20
2023-07-21T11:04:29.855Z,27.40
2023-07-21T11:07:02.158Z,27.50
2023-07-21T11:09:36.894Z,27.20
2023-07-21T11:12:07.971Z,27.20
2023-07-21T11:14:37.894Z,27.30
2023-07-21T11:17:08.394Z,27.30
2023-07-21T11:19:38.574Z,27.50
2023-07-21T11:22:08.901Z,27.50
2023-07-21T11:24:38.923Z,27.40
2023-07-21T11:27:13.174Z,27.60
2023-07-21T11:29:45.922Z,27.70
2023-07-21T11:32:23.005Z,27.80
2023-07-21T11:35:00.409Z,28.00
2023-07-21T11:37:40.808Z,27.90
2023-07-21T11:40:13.386Z,27.80
2023-07-21T11:42:51.158Z,27.80
2023-07-21T11:45:40.553Z,27.80
2023-07-21T11:48:21.654Z,27.70
2023-07-21T11:50:58.722Z,27.60
2023-07-21T11:53:30.217Z,27.60
2023-07-21T11:56:00.179Z,27.60
2023-07-21T11:58:29.955Z,27.50
2023-07-21T12:00:59.762Z,27.40
2023-07-21T12:03:30.006Z,27.40
2023-07-21T12:06:00.299Z,27.40
2023-07-21T12:08:30.303Z,27.30
2023-07-21T12:11:05.942Z,27.30
2023-07-21T12:13:37.074Z,27.30
2023-07-21T12:16:07.441Z,27.10
2023-07-21T12:18:37.313Z,27.20
2023-07-21T12:21:11.015Z,27.00
2023-07-21T12:23:40.730Z,27.00
2023-07-21T12:26:10.988Z,27.00
2023-07-21T12:28:40.838Z,26.90
2023-07-21T12:31:11.296Z,27.00
2023-07-21T12:33:42.579Z,26.90
2023-07-21T12:36:12.867Z,26.80
2023-07-21T12:38:46.713Z,26.80
2023-07-21T12:41:18.742Z,26.80
2023-07-21T12:43:49.071Z,26.70
2023-07-21T12:46:19.140Z,26.70
2023-07-21T12:48:49.409Z,26.70
2023-07-21T12:51:19.431Z,26.60
2023-07-21T12:53:49.260Z,26.60
2023-07-21T12:56:19.314Z,26.50
2023-07-21T12:58:49.086Z,26.40
2023-07-21T13:01:18.915Z,26.20
2023-07-21T13:03:48.917Z,26.00
2023-07-21T13:06:18.878Z,26.00
2023-07-21T13:08:48.768Z,25.80
2023-07-21T13:11:18.889Z,25.80
2023-07-21T13:13:51.406Z,25.70
2023-07-21T13:16:21.783Z,25.70
2023-07-21T13:18:51.993Z,25.70
2023-07-21T13:21:21.789Z,25.70
2023-07-21T13:23:50.930Z,25.70
2023-07-21T13:26:20.714Z,25.70
2023-07-21T13:28:50.443Z,25.60
2023-07-21T13:48:48.175Z,25.50
2023-07-21T13:51:18.463Z,24.70
2023-07-21T13:53:48.817Z,24.60
2023-07-21T13:56:19.605Z,24.60
2023-07-21T13:58:49.455Z,24.40
2023-07-21T14:01:18.667Z,24.40
2023-07-21T14:03:49.713Z,24.40
2023-07-21T14:06:20.692Z,24.20
2023-07-21T14:08:52.241Z,24.30
2023-07-21T14:11:22.405Z,24.50
2023-07-21T14:13:52.199Z,24.50
2023-07-21T14:16:21.768Z,24.50
2023-07-21T14:18:54.538Z,24.50
2023-07-21T14:21:25.316Z,24.60
2023-07-21T14:23:56.519Z,24.50
2023-07-21T14:26:29.038Z,24.50
2023-07-21T14:28:58.838Z,24.40
2023-07-21T14:31:28.915Z,24.20
2023-07-21T14:33:58.751Z,24.20
2023-07-21T14:36:28.750Z,24.10
2023-07-21T14:38:58.827Z,24.10
2023-07-21T14:41:29.605Z,24.00
2023-07-21T14:43:59.448Z,23.90
2023-07-21T14:46:29.485Z,23.90
2023-07-21T14:48:59.659Z,23.90
2023-07-21T14:51:30.043Z,23.90
2023-07-21T14:53:59.870Z,23.90
2023-07-21T14:56:29.424Z,24.00
2023-07-21T14:58:59.495Z,24.00
2023-07-21T15:01:28.694Z,24.10
2023-07-21T15:04:00.234Z,24.00
2023-07-21T15:06:30.123Z,24.00
2023-07-21T15:09:01.403Z,24.10
2023-07-21T15:11:31.139Z,24.10
2023-07-21T15:14:00.940Z,24.20
2023-07-21T15:16:30.361Z,24.20
2023-07-21T15:19:00.576Z,24.20
2023-07-21T15:21:31.170Z,24.20
2023-07-21T15:24:01.022Z,24.30
2023-07-21T15:26:30.414Z,24.30
2023-07-21T15:29:00.547Z,24.20
2023-07-21T15:31:31.006Z,24.20
2023-07-21T15:34:00.890Z,24.20
2023-07-21T15:36:30.214Z,24.20
2023-07-21T15:39:00.409Z,24.10
2023-07-21T15:41:30.361Z,24.10
2023-07-21T15:44:00.504Z,24.10
2023-07-21T15:46:30.847Z,24.20
2023-07-21T15:49:00.890Z,24.10
2023-07-21T15:51:30.452Z,24.10
2023-07-21T15:54:11.626Z,24.10
2023-07-21T15:56:47.392Z,24.10
2023-07-21T15:59:17.755Z,24.10
2023-07-21T16:01:49.739Z,24.10
2023-07-21T16:04:19.647Z,24.10
2023-07-21T16:06:49.379Z,24.00
2023-07-21T16:09:19.203Z,24.00
2023-07-21T16:11:48.501Z,23.90
2023-07-21T16:14:18.839Z,23.90
2023-07-21T16:16:48.830Z,23.80
2023-07-21T16:19:18.631Z,23.80
2023-07-21T16:21:49.133Z,23.80
2023-07-21T16:24:18.889Z,23.90
2023-07-21T16:26:48.736Z,23.90
2023-07-21T16:29:17.921Z,23.80
2023-07-21T16:31:48.205Z,23.80
2023-07-21T16:34:18.126Z,23.80
2023-07-21T16:36:47.879Z,23.80
2023-07-21T16:39:17.903Z,23.80
2023-07-21T16:41:47.876Z,23.70
2023-07-21T16:44:17.030Z,23.60
2023-07-21T16:46:46.798Z,23.60
2023-07-21T16:49:17.201Z,23.60
2023-07-21T16:51:46.857Z,23.60
2023-07-21T16:54:16.633Z,23.60
2023-07-21T16:56:46.551Z,23.60
2023-07-21T16:59:17.176Z,23.60
2023-07-21T17:01:47.300Z,23.60
2023-07-21T17:04:17.061Z,23.60
2023-07-21T17:06:46.872Z,23.50
2023-07-21T17:09:17.943Z,23.50
2023-07-21T17:11:47.786Z,23.50
2023-07-21T17:14:16.950Z,23.60
2023-07-21T17:16:48.174Z,23.60
2023-07-21T17:19:18.061Z,23.60
2023-07-21T17:21:47.308Z,23.60
2023-07-21T17:24:17.226Z,23.60
2023-07-21T17:26:46.451Z,23.70
2023-07-21T17:29:16.171Z,23.70
2023-07-21T17:31:46.046Z,23.70
2023-07-21T17:34:15.222Z,23.70
2023-07-21T17:36:44.933Z,23.70
2023-07-21T17:39:14.905Z,23.80
2023-07-21T17:41:44.025Z,23.80
2023-07-21T17:44:14.428Z,23.70
2023-07-21T17:46:44.310Z,23.60
2023-07-21T17:49:13.680Z,23.60
2023-07-21T17:51:43.650Z,23.60
2023-07-21T17:54:13.393Z,23.70
2023-07-21T17:56:46.010Z,23.70
2023-07-21T17:59:16.255Z,23.80
2023-07-21T18:01:45.481Z,23.80
2023-07-21T18:04:15.401Z,23.70
2023-07-21T18:06:44.574Z,23.70
2023-07-21T18:09:14.284Z,23.70
2023-07-21T18:11:45.107Z,23.70
2023-07-21T18:14:15.107Z,23.70
2023-07-21T18:16:44.871Z,23.70
2023-07-21T18:19:14.896Z,23.70
2023-07-21T18:21:44.688Z,23.70
2023-07-21T18:24:14.702Z,23.70
2023-07-21T18:26:44.735Z,23.70
2023-07-21T18:29:14.742Z,23.80
2023-07-21T18:31:44.471Z,23.70
2023-07-21T18:34:14.240Z,23.70
2023-07-21T18:36:46.231Z,23.70
2023-07-21T18:39:16.190Z,23.70
2023-07-21T18:41:45.956Z,23.70
2023-07-21T18:44:16.051Z,23.70
2023-07-21T18:46:46.092Z,23.60
2023-07-21T18:49:15.884Z,23.70
2023-07-21T18:56:43.223Z,23.60
2023-07-21T18:59:12.314Z,23.60
2023-07-21T19:01:43.230Z,23.60
2023-07-21T19:04:13.128Z,23.60
2023-07-21T19:06:43.374Z,23.60
2023-07-21T19:09:13.512Z,23.60
2023-07-21T19:11:43.360Z,23.60
2023-07-21T19:14:14.031Z,23.60
2023-07-21T19:16:44.037Z,23.60
2023-07-21T19:19:13.847Z,23.60
2023-07-21T19:21:43.533Z,23.60
2023-07-21T19:24:13.338Z,23.60
2023-07-21T19:26:43.571Z,23.70
2023-07-21T19:29:13.314Z,23.70
2023-07-21T19:31:44.811Z,23.60
2023-07-21T19:34:15.044Z,23.60
2023-07-21T19:36:46.585Z,23.70
2023-07-21T19:39:17.104Z,23.60
2023-07-21T19:41:46.853Z,23.50
2023-07-21T19:44:16.577Z,23.50
2023-07-21T19:46:46.376Z,23.40
2023-07-21T19:49:15.640Z,23.40
2023-07-21T19:51:45.960Z,23.40
2023-07-21T19:54:15.867Z,23.40
2023-07-21T19:56:45.430Z,23.40
2023-07-21T19:59:15.186Z,23.40
2023-07-21T20:01:45.248Z,23.30
2023-07-21T20:04:15.832Z,23.30
2023-07-21T20:06:45.848Z,23.20
2023-07-21T20:09:15.630Z,23.10
2023-07-21T20:11:45.506Z,23.10
2023-07-21T20:14:14.914Z,23.10
2023-07-21T20:16:44.775Z,23.10
2023-07-21T20:19:15.242Z,23.10
2023-07-21T20:21:45.004Z,23.10
2023-07-21T20:24:14.718Z,23.10
2023-07-21T20:26:44.591Z,23.10
2023-07-21T20:29:14.624Z,23.10
2023-07-21T20:31:43.899Z,23.10
2023-07-21T20:34:13.815Z,23.10
2023-07-21T20:36:45.555Z,23.10
2023-07-21T20:39:15.309Z,23.10
2023-07-21T20:41:45.070Z,23.10
2023-07-21T20:44:14.734Z,23.20
2023-07-21T20:46:44.524Z,23.20
2023-07-21T20:49:14.243Z,23.10
2023-07-21T20:51:44.010Z,23.10
2023-07-21T20:54:14.823Z,23.20
2023-07-21T20:56:44.565Z,23.20
2023-07-21T20:59:14.794Z,23.20
2023-07-21T21:01:44.701Z,23.10
2023-07-21T21:04:16.101Z,23.20
2023-07-21T21:06:46.204Z,23.20
2023-07-21T21:09:15.981Z,23.20
2023-07-21T21:11:45.827Z,23.10
2023-07-21T21:14:15.067Z,23.10
2023-07-21T21:16:44.877Z,23.20
2023-07-21T21:19:14.764Z,23.30
2023-07-21T21:21:45.340Z,23.20
2023-07-21T21:24:15.514Z,23.10
2023-07-21T21:26:45.276Z,23.10
2023-07-21T21:29:15.010Z,23.10
2023-07-21T21:31:44.801Z,23.10
2023-07-21T21:34:14.172Z,23.10
2023-07-21T21:36:44.004Z,23.10
2023-07-21T21:39:13.665Z,23.00
2023-07-21T21:41:43.670Z,23.10
2023-07-21T21:44:12.803Z,23.00
2023-07-21T21:46:42.594Z,23.00
2023-07-21T21:49:12.704Z,23.00
2023-07-21T21:51:42.451Z,22.90
2023-07-21T21:54:12.604Z,23.00
2023-07-21T21:56:42.476Z,22.90
2023-07-21T21:59:11.694Z,22.90
2023-07-21T22:01:41.549Z,22.90
2023-07-21T22:04:11.390Z,22.90
2023-07-21T22:06:41.195Z,22.90
2023-07-21T22:09:10.961Z,22.80
2023-07-21T22:11:40.950Z,22.90
2023-07-21T22:14:10.108Z,22.90
2023-07-21T22:16:40.176Z,22.90
2023-07-21T22:19:10.233Z,22.80
2023-07-21T22:21:40.164Z,22.80
2023-07-21T22:24:09.444Z,22.80
2023-07-21T22:26:39.954Z,22.80
2023-07-21T22:29:09.655Z,22.80
2023-07-21T22:31:39.632Z,22.80
2023-07-21T22:34:09.616Z,22.70
2023-07-21T22:36:38.811Z,22.80
2023-07-21T22:39:08.695Z,22.70
2023-07-21T22:41:38.573Z,22.70
2023-07-21T22:44:07.939Z,22.70
2023-07-21T22:46:37.812Z,22.70
2023-07-21T22:49:07.043Z,22.70
2023-07-21T22:51:36.821Z,22.70
2023-07-21T22:54:06.718Z,22.70
2023-07-21T22:56:35.950Z,22.70
2023-07-21T22:59:06.291Z,22.80
2023-07-21T23:01:36.161Z,22.80
2023-07-21T23:04:05.316Z,22.80
2023-07-21T23:06:35.231Z,22.80
2023-07-21T23:09:04.400Z,22.80
2023-07-21T23:11:34.168Z,22.80
2023-07-21T23:14:03.889Z,22.90
2023-07-21T23:16:33.777Z,22.80
2023-07-21T23:19:03.806Z,22.90
2023-07-21T23:21:32.941Z,22.90
2023-07-21T23:24:02.677Z,22.80
2023-07-21T23:26:32.988Z,22.80
2023-07-21T23:29:02.778Z,22.80
2023-07-21T23:31:36.585Z,22.80
2023-07-21T23:34:06.321Z,22.90
2023-07-21T23:36:35.723Z,22.80
2023-07-21T23:39:08.429Z,22.70
2023-07-21T23:41:38.166Z,22.70
2023-07-21T23:44:12.215Z,22.70
2023-07-21T23:46:42.550Z,22.70
2023-07-21T23:49:12.340Z,22.70
2023-07-21T23:51:42.037Z,22.70
2023-07-21T23:54:11.740Z,22.70
2023-07-21T23:56:41.624Z,22.70
2023-07-21T23:59:10.966Z,22.70
